Terminal Aerodrome Forecast
Issued by NWS Dodge City, KS

Current Version | Previous Version | Text Only | Print | Product List | Glossary On
Versions: 1 2 3 4 5 6 7 8 9 10 11 12 13 14 15 16 17 18 19 20 21 22 23 24 25 26
000
FTUS43 KDDC 180544
TAFDDC
TAF
KDDC 180544Z 1806/1906 11010KT 1SM -SN OVC004
     FM180800 10008KT P6SM OVC008
     FM181600 36008KT P6SM OVC015
     FM181900 VRB06KT P6SM SCT020
     FM190500 20007KT P6SM OVC005=

USA.gov is the U.S. government's official web portal to all federal, state and local government web resources and services.